Observation data for Morton on 02/14/2018      Previous  Date  Next       Current Mesonet Observations  Soil Data  Daily Summary Page  Observations in Plain Language
KMNS 140600Z 18006KT 06/M02 A3025 RMK A01 T00621019  RH  057%=      5-min Rain = 0
KMNS 140605Z 19006KT 06/M02 A3024 RMK A01 T00601021  RH  056%=      5-min Rain = 0
KMNS 140610Z 19005KT 06/M02 A3024 RMK A01 T00561024  RH  057%=      5-min Rain = 0
KMNS 140615Z 20005KT 06/M02 A3024 RMK A01 T00581023  RH  057%=      5-min Rain = 0
KMNS 140620Z 20004KT 06/M02 A3024 RMK A01 T00591022  RH  056%=      5-min Rain = 0
KMNS 140625Z 20004KT 06/M02 A3024 RMK A01 T00591022  RH  056%=      5-min Rain = 0
KMNS 140630Z 20004KT 06/M02 A3024 RMK A01 T00601023  RH  056%=      5-min Rain = 0
KMNS 140635Z 20004KT 06/M02 A3024 RMK A01 T00591024  RH  056%=      5-min Rain = 0
KMNS 140640Z 20004KT 06/M02 A3023 RMK A01 T00581023  RH  056%=      5-min Rain = 0
KMNS 140645Z 20003KT 06/M02 A3023 RMK A01 T00591021  RH  057%=      5-min Rain = 0
KMNS 140650Z 21001KT 06/M02 A3023 RMK A01 T00571024  RH  056%=      5-min Rain = 0
KMNS 140655Z 20001KT 06/M02 A3023 RMK A01 T00621018  RH  057%=      5-min Rain = 0
KMNS 140700Z 19003KT 06/M02 A3023 RMK A01 T00641016  RH  057%=      5-min Rain = 0
KMNS 140705Z 18004KT 07/M02 A3023 RMK A01 T00661017  RH  056%=      5-min Rain = 0
KMNS 140710Z 18004KT 06/M02 A3023 RMK A01 T00611020  RH  057%=      5-min Rain = 0
KMNS 140715Z 18003KT 06/M02 A3023 RMK A01 T00591019  RH  058%=      5-min Rain = 0
KMNS 140720Z 18004KT 06/M02 A3023 RMK A01 T00591019  RH  058%=      5-min Rain = 0
KMNS 140725Z 19003KT 06/M02 A3023 RMK A01 T00601019  RH  058%=      5-min Rain = 0
KMNS 140730Z 19002KT 06/M02 A3023 RMK A01 T00591021  RH  057%=      5-min Rain = 0
KMNS 140735Z 19002KT 06/M02 A3023 RMK A01 T00601020  RH  057%=      5-min Rain = 0
KMNS 140740Z 18001KT 06/M02 A3023 RMK A01 T00611020  RH  057%=      5-min Rain = 0
KMNS 140745Z 17001KT 06/M02 A3023 RMK A01 T00621020  RH  056%=      5-min Rain = 0
KMNS 140750Z 18002KT 06/M02 A3022 RMK A01 T00621021  RH  056%=      5-min Rain = 0
KMNS 140755Z 19003KT 06/M02 A3022 RMK A01 T00621022  RH  055%=      5-min Rain = 0
KMNS 140800Z 19004KT 06/M02 A3022 RMK A01 T00621022  RH  055%=      5-min Rain = 0
KMNS 140805Z 20003KT 06/M02 A3022 RMK A01 T00621023  RH  055%=      5-min Rain = 0
KMNS 140810Z 22004KT 06/M02 A3022 RMK A01 T00621024  RH  054%=      5-min Rain = 0
KMNS 140815Z 25005KT 07/M02 A3022 RMK A01 T00651024  RH  053%=      5-min Rain = 0
KMNS 140820Z 26005KT 07/M02 A3022 RMK A01 T00671024  RH  052%=      5-min Rain = 0
KMNS 140825Z 24004KT 07/M02 A3021 RMK A01 T00651022  RH  054%=      5-min Rain = 0
KMNS 140830Z 22005KT 06/M03 A3021 RMK A01 T00581027  RH  055%=      5-min Rain = 0
KMNS 140835Z 26003KT 05/M03 A3021 RMK A01 T00521028  RH  057%=      5-min Rain = 0
KMNS 140840Z 24003KT 05/M03 A3021 RMK A01 T00521026  RH  057%=      5-min Rain = 0
KMNS 140845Z 25003KT 05/M03 A3021 RMK A01 T00521027  RH  057%=      5-min Rain = 0
KMNS 140850Z 24003KT 05/M02 A3021 RMK A01 T00541024  RH  058%=      5-min Rain = 0
KMNS 140855Z 22003KT 06/M03 A302 RMK A01 T00551027  RH  056%=      5-min Rain = 0
KMNS 140900Z 22002KT 05/M03 A302 RMK A01 T00521030  RH  056%=      5-min Rain = 0
KMNS 140905Z 24002KT 05/M03 A302 RMK A01 T00501026  RH  058%=      5-min Rain = 0
KMNS 140910Z 25003KT 05/M03 A302 RMK A01 T00541025  RH  057%=      5-min Rain = 0
KMNS 140915Z 24003KT 06/M03 A302 RMK A01 T00551028  RH  055%=      5-min Rain = 0
KMNS 140920Z 26004KT 05/M03 A302 RMK A01 T00531029  RH  056%=      5-min Rain = 0
KMNS 140925Z 25004KT 05/M03 A302 RMK A01 T00501032  RH  056%=      5-min Rain = 0
KMNS 140930Z 25004KT 05/M04 A302 RMK A01 T00451035  RH  056%=      5-min Rain = 0
KMNS 140935Z 25005KT 04/M04 A3019 RMK A01 T00391039  RH  057%=      5-min Rain = 0
KMNS 140940Z 26005KT 04/M03 A3019 RMK A01 T00431032  RH  059%=      5-min Rain = 0
KMNS 140945Z 27005KT 05/M03 A3019 RMK A01 T00451030  RH  058%=      5-min Rain = 0
KMNS 140950Z 28006KT 05/M03 A3019 RMK A01 T00461029  RH  059%=      5-min Rain = 0
KMNS 140955Z 27005KT 05/M03 A3018 RMK A01 T00481029  RH  058%=      5-min Rain = 0
KMNS 141000Z 26005KT 04/M04 A3019 RMK A01 T00441035  RH  057%=      5-min Rain = 0
KMNS 141005Z 26004KT 04/M04 A3019 RMK A01 T00401035  RH  058%=      5-min Rain = 0
KMNS 141010Z 25003KT 04/M04 A3019 RMK A01 T00421037  RH  057%=      5-min Rain = 0
KMNS 141015Z 24004KT 04/M04 A3018 RMK A01 T00411036  RH  058%=      5-min Rain = 0
KMNS 141020Z 24004KT 04/M04 A3019 RMK A01 T00421035  RH  058%=      5-min Rain = 0
KMNS 141025Z 24005KT 05/M03 A3019 RMK A01 T00481033  RH  056%=      5-min Rain = 0
KMNS 141030Z 23003KT 05/M04 A3018 RMK A01 T00531035  RH  053%=      5-min Rain = 0
KMNS 141035Z 23007KT 06/M03 A3019 RMK A01 T00631030  RH  052%=      5-min Rain = 0
KMNS 141040Z 24007KT 09/M03 A3018 RMK A01 T00921029  RH  043%=      5-min Rain = 0
KMNS 141045Z 24006KT 09/M03 A3019 RMK A01 T00931031  RH  042%=      5-min Rain = 0
KMNS 141050Z 23008KT 10/M03 A3019 RMK A01 T00981032  RH  040%=      5-min Rain = 0
KMNS 141055Z 23009KT 10/M03 A3019 RMK A01 T01001034  RH  039%=      5-min Rain = 0
KMNS 141100Z 22010KT 10/M04 A3019 RMK A01 T01021035  RH  038%=      5-min Rain = 0
KMNS 141105Z 22008KT 10/M04 A3019 RMK A01 T01021036  RH  038%=      5-min Rain = 0
KMNS 141110Z 22006KT 10/M04 A3019 RMK A01 T01031036  RH  038%=      5-min Rain = 0
KMNS 141115Z 23004KT 10/M04 A3019 RMK A01 T00991037  RH  038%=      5-min Rain = 0
KMNS 141120Z 31003KT 07/M05 A302 RMK A01 T00661045  RH  045%=      5-min Rain = 0
KMNS 141125Z 28005KT 07/M04 A302 RMK A01 T00731035  RH  046%=      5-min Rain = 0
KMNS 141130Z 26006KT 09/M03 A302 RMK A01 T00871031  RH  044%=      5-min Rain = 0
KMNS 141135Z 24007KT 09/M03 A302 RMK A01 T00891032  RH  043%=      5-min Rain = 0
KMNS 141140Z 24006KT 09/M03 A302 RMK A01 T00871033  RH  043%=      5-min Rain = 0
KMNS 141145Z 25005KT 08/M03 A302 RMK A01 T00831034  RH  044%=      5-min Rain = 0
KMNS 141150Z 26006KT 08/M03 A302 RMK A01 T00831033  RH  044%=      5-min Rain = 0
KMNS 141155Z 25006KT 08/M03 A302 RMK A01 T00811034  RH  044%=      5-min Rain = 0
KMNS 141200Z 25006KT 08/M03 A3019 RMK A01 T00841034  RH  043%=      5-min Rain = 0
KMNS 141205Z 25006KT 09/M04 A3019 RMK A01 T00861035  RH  042%=      5-min Rain = 0
KMNS 141210Z 26006KT 09/M04 A3019 RMK A01 T00881035  RH  042%=      5-min Rain = 0
KMNS 141215Z 23006KT 09/M04 A3019 RMK A01 T00881037  RH  041%=      5-min Rain = 0
KMNS 141220Z 22006KT 09/M04 A3019 RMK A01 T00871038  RH  041%=      5-min Rain = 0
KMNS 141225Z 20005KT 09/M04 A3018 RMK A01 T00861038  RH  041%=      5-min Rain = 0
KMNS 141230Z 20006KT 08/M04 A3019 RMK A01 T00801040  RH  043%=      5-min Rain = 0
KMNS 141235Z 21006KT 07/M04 A3019 RMK A01 T00721040  RH  045%=      5-min Rain = 0
KMNS 141240Z 22005KT 07/M04 A3019 RMK A01 T00691042  RH  045%=      5-min Rain = 0
KMNS 141245Z 21007KT 07/M04 A3019 RMK A01 T00661043  RH  046%=      5-min Rain = 0
KMNS 141250Z 21006KT 07/M04 A3018 RMK A01 T00681039  RH  047%=      5-min Rain = 0
KMNS 141255Z 21005KT 07/M04 A3019 RMK A01 T00651041  RH  047%=      5-min Rain = 0
KMNS 141300Z 22007KT 06/M04 A3019 RMK A01 T00601043  RH  048%=      5-min Rain = 0
KMNS 141305Z 20006KT 07/M04 A3019 RMK A01 T00661040  RH  047%=      5-min Rain = 0
KMNS 141310Z 21008KT 07/M04 A3019 RMK A01 T00681039  RH  046%=      5-min Rain = 0
KMNS 141315Z 21009KT 07/M04 A3019 RMK A01 T00741037  RH  046%=      5-min Rain = 0
KMNS 141320Z 21009KT 07/M04 A3019 RMK A01 T00741035  RH  046%=      5-min Rain = 0
KMNS 141325Z 21009KT 08/M04 A3019 RMK A01 T00761035  RH  046%=      5-min Rain = 0
KMNS 141330Z 21009KT 08/M04 A3019 RMK A01 T00761035  RH  046%=      5-min Rain = 0
KMNS 141335Z 21008KT 07/M04 A3019 RMK A01 T00721036  RH  046%=      5-min Rain = 0
KMNS 141340Z 21007KT 07/M04 A3019 RMK A01 T00711036  RH  047%=      5-min Rain = 0
KMNS 141345Z 21007KT 07/M04 A3019 RMK A01 T00671036  RH  048%=      5-min Rain = 0
KMNS 141350Z 20007KT 07/M04 A3019 RMK A01 T00671035  RH  048%=      5-min Rain = 0
KMNS 141355Z 21006KT 06/M04 A3018 RMK A01 T00641037  RH  049%=      5-min Rain = 0
KMNS 141400Z 20006KT 07/M04 A3018 RMK A01 T00651037  RH  048%=      5-min Rain = 0
KMNS 141405Z 21007KT 07/M04 A3019 RMK A01 T00671036  RH  048%=      5-min Rain = 0
KMNS 141410Z 21005KT 07/M04 A3019 RMK A01 T00721036  RH  046%=      5-min Rain = 0
KMNS 141415Z 21004KT 08/M04 A3019 RMK A01 T00751035  RH  046%=      5-min Rain = 0
KMNS 141420Z 20005KT 08/M03 A3019 RMK A01 T00781033  RH  045%=      5-min Rain = 0
KMNS 141425Z 19007KT 08/M03 A3019 RMK A01 T00781031  RH  046%=      5-min Rain = 0
KMNS 141430Z 19007KT 08/M03 A302 RMK A01 T00801030  RH  046%=      5-min Rain = 0
KMNS 141435Z 20007KT 08/M03 A302 RMK A01 T00841028  RH  045%=      5-min Rain = 0
KMNS 141440Z 20006KT 09/M03 A302 RMK A01 T00881027  RH  045%=      5-min Rain = 0
KMNS 141445Z 21005KT 09/M03 A302 RMK A01 T00921026  RH  044%=      5-min Rain = 0
KMNS 141450Z 22006KT 10/M03 A302 RMK A01 T00991025  RH  042%=      5-min Rain = 0
KMNS 141455Z 23007KT 11/M02 A302 RMK A01 T01061024  RH  040%=      5-min Rain = 0
KMNS 141500Z 23008KT 11/M02 A302 RMK A01 T01121023  RH  039%=      5-min Rain = 0
KMNS 141505Z 23007KT 12/M02 A302 RMK A01 T01151022  RH  039%=      5-min Rain = 0
KMNS 141510Z 23006KT 12/M02 A302 RMK A01 T01181021  RH  038%=      5-min Rain = 0
KMNS 141515Z 24006KT 12/M02 A3019 RMK A01 T01221021  RH  037%=      5-min Rain = 0
KMNS 141520Z 24007KT 13/M02 A3019 RMK A01 T01261020  RH  037%=      5-min Rain = 0
KMNS 141525Z 24007KT 13/M02 A302 RMK A01 T01331019  RH  035%=      5-min Rain = 0
KMNS 141530Z 24007KT 14/M02 A302 RMK A01 T01371019  RH  034%=      5-min Rain = 0
KMNS 141535Z 24007KT 14/M02 A302 RMK A01 T01421019  RH  033%=      5-min Rain = 0
KMNS 141540Z 23009KT 15/M02 A302 RMK A01 T01501018  RH  032%=      5-min Rain = 0
KMNS 141545Z 22010G15KT 16/M02 A302 RMK A01 T01581019  RH  030%=      5-min Rain = 0
KMNS 141550Z 21011KT 17/M02 A302 RMK A01 T01671022  RH  028%=      5-min Rain = 0
KMNS 141555Z 21011KT 17/M02 A302 RMK A01 T01721022  RH  027%=      5-min Rain = 0
KMNS 141600Z 20013KT 18/M03 A302 RMK A01 T01751025  RH  026%=      5-min Rain = 0
KMNS 141605Z 20012KT 18/M03 A302 RMK A01 T01791025  RH  025%=      5-min Rain = 0
KMNS 141610Z 20013KT 18/M03 A3019 RMK A01 T01791027  RH  025%=      5-min Rain = 0
KMNS 141615Z 21013KT 18/M03 A3019 RMK A01 T01811030  RH  024%=      5-min Rain = 0
KMNS 141620Z 20013KT 19/M03 A302 RMK A01 T01861030  RH  023%=      5-min Rain = 0
KMNS 141625Z 20014KT 19/M03 A3019 RMK A01 T01871032  RH  023%=      5-min Rain = 0
KMNS 141630Z 21015KT 19/M03 A3019 RMK A01 T01881034  RH  022%=      5-min Rain = 0
KMNS 141635Z 21014KT 19/M03 A3019 RMK A01 T01911034  RH  022%=      5-min Rain = 0
KMNS 141640Z 21012KT 20/M03 A3019 RMK A01 T01961031  RH  021%=      5-min Rain = 0
KMNS 141645Z 21013KT 20/M04 A3019 RMK A01 T02011036  RH  020%=      5-min Rain = 0
KMNS 141650Z 21012KT 20/M04 A3018 RMK A01 T02021037  RH  020%=      5-min Rain = 0
KMNS 141655Z 21012KT 21/M04 A3019 RMK A01 T02061037  RH  019%=      5-min Rain = 0
KMNS 141700Z 21013KT 21/M04 A3019 RMK A01 T02111042  RH  018%=      5-min Rain = 0
KMNS 141705Z 21013KT 21/M05 A3019 RMK A01 T02091047  RH  018%=      5-min Rain = 0
KMNS 141710Z 21014KT 22/M05 A3019 RMK A01 T02171049  RH  016%=      5-min Rain = 0
KMNS 141715Z 20014KT 22/M05 A3018 RMK A01 T02181052  RH  016%=      5-min Rain = 0
KMNS 141720Z 21016KT 21/M06 A3018 RMK A01 T02141058  RH  016%=      5-min Rain = 0
KMNS 141725Z 21016KT 21/M06 A3018 RMK A01 T02111059  RH  016%=      5-min Rain = 0
KMNS 141730Z 21015KT 22/M06 A3017 RMK A01 T02181058  RH  015%=      5-min Rain = 0
KMNS 141735Z 22014G19KT 22/M06 A3017 RMK A01 T02231059  RH  015%=      5-min Rain = 0
KMNS 141740Z 21014KT 22/M06 A3017 RMK A01 T02181062  RH  015%=      5-min Rain = 0
KMNS 141745Z 22014G21KT 22/M06 A3017 RMK A01 T02191063  RH  015%=      5-min Rain = 0
KMNS 141750Z 22013KT 23/M07 A3017 RMK A01 T02261065  RH  014%=      5-min Rain = 0
KMNS 141755Z 21015G20KT 23/M07 A3017 RMK A01 T02301067  RH  013%=      5-min Rain = 0
KMNS 141800Z 22015G21KT 23/M07 A3016 RMK A01 T02341068  RH  013%=      5-min Rain = 0
KMNS 141805Z 22017KT 24/M08 A3016 RMK A01 T02371075  RH  012%=      5-min Rain = 0
KMNS 141810Z 22016KT 24/M08 A3015 RMK A01 T02401076  RH  012%=      5-min Rain = 0
KMNS 141815Z 22017KT 24/M08 A3015 RMK A01 T02431078  RH  011%=      5-min Rain = 0
KMNS 141820Z 22019G24KT 25/M09 A3015 RMK A01 T02451086  RH  010%=      5-min Rain = 0
KMNS 141825Z 22018G23KT 25/M09 A3014 RMK A01 T02471091  RH  010%=      5-min Rain = 0
KMNS 141830Z 23020KT 25/M10 A3014 RMK A01 T02451095  RH  010%=      5-min Rain = 0
KMNS 141835Z 21018G24KT 25/M09 A3014 RMK A01 T02501094  RH  009%=      5-min Rain = 0
KMNS 141840Z 21021G27KT 25/M10 A3013 RMK A01 T02511096  RH  009%=      5-min Rain = 0
KMNS 141845Z 21019G24KT 25/M10 A3013 RMK A01 T02491095  RH  009%=      5-min Rain = 0
KMNS 141850Z 23019G24KT 25/M10 A3013 RMK A01 T02501097  RH  009%=      5-min Rain = 0
KMNS 141855Z 23019G26KT 25/M10 A3013 RMK A01 T02511097  RH  009%=      5-min Rain = 0
KMNS 141900Z 22019G24KT 25/M10 A3012 RMK A01 T02521100  RH  009%=      5-min Rain = 0
KMNS 141905Z 22021G27KT 25/M10 A3012 RMK A01 T02521100  RH  009%=      5-min Rain = 0
KMNS 141910Z 22021G26KT 25/M10 A3012 RMK A01 T02501100  RH  009%=      5-min Rain = 0
KMNS 141915Z 22017G28KT 26/M10 A3012 RMK A01 T02591098  RH  009%=      5-min Rain = 0
KMNS 141920Z 21023G29KT 26/M10 A3011 RMK A01 T02551100  RH  009%=      5-min Rain = 0
KMNS 141925Z 21019G26KT 26/M10 A3011 RMK A01 T02581098  RH  009%=      5-min Rain = 0
KMNS 141930Z 22017KT 26/M10 A301 RMK A01 T02601097  RH  009%=      5-min Rain = 0
KMNS 141935Z 22020G29KT 26/M10 A301 RMK A01 T02631098  RH  008%=      5-min Rain = 0
KMNS 141940Z 22020G27KT 26/M10 A3009 RMK A01 T02601099  RH  009%=      5-min Rain = 0
KMNS 141945Z 22018G24KT 26/M10 A3009 RMK A01 T02621098  RH  009%=      5-min Rain = 0
KMNS 141950Z 21022G29KT 26/M10 A3008 RMK A01 T02611097  RH  009%=      5-min Rain = 0
KMNS 141955Z 22022G29KT 26/M10 A3008 RMK A01 T02611098  RH  009%=      5-min Rain = 0
KMNS 142000Z 23018G26KT 26/M10 A3008 RMK A01 T02621097  RH  009%=      5-min Rain = 0
KMNS 142005Z 23023G30KT 26/M09 A3007 RMK A01 T02621089  RH  009%=      5-min Rain = 0
KMNS 142010Z 22022G27KT 26/M08 A3007 RMK A01 T02641080  RH  010%=      5-min Rain = 0
KMNS 142015Z 22022G27KT 27/M08 A3007 RMK A01 T02661077  RH  010%=      5-min Rain = 0
KMNS 142020Z 22025G31KT 27/M07 A3006 RMK A01 T02651070  RH  010%=      5-min Rain = 0
KMNS 142025Z 21023G30KT 27/M07 A3006 RMK A01 T02681072  RH  010%=      5-min Rain = 0
KMNS 142030Z 22025G30KT 27/M06 A3005 RMK A01 T02681060  RH  011%=      5-min Rain = 0
KMNS 142035Z 22023G30KT 27/M06 A3005 RMK A01 T02721057  RH  011%=      5-min Rain = 0
KMNS 142040Z 23021G28KT 27/M06 A3005 RMK A01 T02701061  RH  011%=      5-min Rain = 0
KMNS 142045Z 23021G30KT 27/M06 A3005 RMK A01 T02691055  RH  011%=      5-min Rain = 0
KMNS 142050Z 23027KT 27/M05 A3004 RMK A01 T02701048  RH  012%=      5-min Rain = 0
KMNS 142055Z 24023G29KT 27/M05 A3004 RMK A01 T02681047  RH  012%=      5-min Rain = 0
KMNS 142100Z 23019G27KT 28/M04 A3004 RMK A01 T02751040  RH  012%=      5-min Rain = 0
KMNS 142105Z 23023G34KT 28/M04 A3003 RMK A01 T02761038  RH  013%=      5-min Rain = 0
KMNS 142110Z 23027G34KT 27/M03 A3003 RMK A01 T02701033  RH  014%=      5-min Rain = 0
KMNS 142115Z 23024G33KT 27/M03 A3003 RMK A01 T02721034  RH  013%=      5-min Rain = 0
KMNS 142120Z 23025G31KT 27/M03 A3003 RMK A01 T02701034  RH  013%=      5-min Rain = 0
KMNS 142125Z 22026G31KT 27/M03 A3003 RMK A01 T02721034  RH  013%=      5-min Rain = 0
KMNS 142130Z 22025G33KT 27/M04 A3003 RMK A01 T02681036  RH  013%=      5-min Rain = 0
KMNS 142135Z 22024G31KT 27/M03 A3003 RMK A01 T02701031  RH  014%=      5-min Rain = 0
KMNS 142140Z 23025G31KT 27/M04 A3002 RMK A01 T02691035  RH  013%=      5-min Rain = 0
KMNS 142145Z 23026G31KT 27/M03 A3002 RMK A01 T02661030  RH  014%=      5-min Rain = 0
KMNS 142150Z 24025G32KT 26/M03 A3002 RMK A01 T02631033  RH  014%=      5-min Rain = 0
KMNS 142155Z 23023G32KT 26/M03 A3002 RMK A01 T02611026  RH  015%=      5-min Rain = 0
KMNS 142200Z 22025G32KT 27/M03 A3002 RMK A01 T02651027  RH  015%=      5-min Rain = 0
KMNS 142205Z 22023G28KT 26/M03 A3002 RMK A01 T02641029  RH  014%=      5-min Rain = 0
KMNS 142210Z 22023G29KT 27/M03 A3002 RMK A01 T02661032  RH  014%=      5-min Rain = 0
KMNS 142215Z 22025G35KT 26/M03 A3002 RMK A01 T02631034  RH  014%=      5-min Rain = 0
KMNS 142220Z 22024G30KT 26/M04 A3002 RMK A01 T02601036  RH  014%=      5-min Rain = 0
KMNS 142225Z 23023G29KT 26/M04 A3001 RMK A01 T02561037  RH  014%=      5-min Rain = 0
KMNS 142230Z 21025G34KT 26/M04 A3001 RMK A01 T02611037  RH  014%=      5-min Rain = 0
KMNS 142235Z 22021G28KT 26/M04 A3001 RMK A01 T02621041  RH  013%=      5-min Rain = 0
KMNS 142240Z 23022G30KT 26/M04 A3001 RMK A01 T02611043  RH  013%=      5-min Rain = 0
KMNS 142245Z 22022G30KT 26/M04 A30 RMK A01 T02591040  RH  014%=      5-min Rain = 0
KMNS 142250Z 23024G29KT 26/M04 A30 RMK A01 T02591036  RH  014%=      5-min Rain = 0
KMNS 142255Z 23022G30KT 26/M04 A30 RMK A01 T02591037  RH  014%=      5-min Rain = 0
KMNS 142300Z 23020G26KT 26/M04 A30 RMK A01 T02571038  RH  014%=      5-min Rain = 0
KMNS 142305Z 22019G26KT 26/M04 A30 RMK A01 T02581044  RH  013%=      5-min Rain = 0
KMNS 142310Z 22022G29KT 25/M05 A30 RMK A01 T02541049  RH  013%=      5-min Rain = 0
KMNS 142315Z 22017G22KT 25/M05 A3001 RMK A01 T02481050  RH  014%=      5-min Rain = 0
KMNS 142320Z 22023G30KT 25/M05 A3001 RMK A01 T02481048  RH  014%=      5-min Rain = 0
KMNS 142325Z 22022G27KT 25/M05 A3001 RMK A01 T02471046  RH  014%=      5-min Rain = 0
KMNS 142330Z 22024G32KT 24/M04 A30 RMK A01 T02431040  RH  015%=      5-min Rain = 0
KMNS 142335Z 22018G24KT 24/M04 A30 RMK A01 T02421041  RH  015%=      5-min Rain = 0
KMNS 142340Z 22019G25KT 24/M04 A30 RMK A01 T02411044  RH  015%=      5-min Rain = 0
KMNS 142345Z 22017G22KT 24/M05 A30 RMK A01 T02381045  RH  015%=      5-min Rain = 0
KMNS 142350Z 22017G23KT 24/M05 A30 RMK A01 T02381045  RH  015%=      5-min Rain = 0
KMNS 142355Z 23015G21KT 24/M04 A30 RMK A01 T02361044  RH  015%=      5-min Rain = 0
KMNS 150000Z 23017G23KT 24/M04 A30 RMK A01 T02351044  RH  015%=      5-min Rain = 0
KMNS 150005Z 22018KT 24/M04 A2999 RMK A01 T02351044  RH  015%=      5-min Rain = 0
KMNS 150010Z 22017G22KT 23/M05 A2999 RMK A01 T02331045  RH  015%=      5-min Rain = 0
KMNS 150015Z 22017G24KT 23/M04 A30 RMK A01 T02321043  RH  016%=      5-min Rain = 0
KMNS 150020Z 22016G21KT 23/M04 A30 RMK A01 T02321042  RH  016%=      5-min Rain = 0
KMNS 150025Z 21014KT 23/M04 A30 RMK A01 T02281041  RH  016%=      5-min Rain = 0
KMNS 150030Z 22014KT 23/M04 A30 RMK A01 T02251040  RH  017%=      5-min Rain = 0
KMNS 150035Z 22012KT 22/M04 A3001 RMK A01 T02231040  RH  017%=      5-min Rain = 0
KMNS 150040Z 22011KT 22/M04 A3001 RMK A01 T02201038  RH  018%=      5-min Rain = 0
KMNS 150045Z 22012KT 22/M04 A3001 RMK A01 T02181037  RH  018%=      5-min Rain = 0
KMNS 150050Z 22010KT 22/M04 A3001 RMK A01 T02171036  RH  018%=      5-min Rain = 0
KMNS 150055Z 22009KT 22/M04 A3001 RMK A01 T02151036  RH  018%=      5-min Rain = 0
KMNS 150100Z 22009KT 21/M04 A3001 RMK A01 T02131035  RH  019%=      5-min Rain = 0
KMNS 150105Z 22009KT 21/M03 A3001 RMK A01 T02111034  RH  019%=      5-min Rain = 0
KMNS 150110Z 22010KT 21/M03 A3001 RMK A01 T02121031  RH  019%=      5-min Rain = 0
KMNS 150115Z 22010KT 21/M03 A3001 RMK A01 T02121028  RH  020%=      5-min Rain = 0
KMNS 150120Z 22011KT 21/M03 A3001 RMK A01 T02121025  RH  020%=      5-min Rain = 0
KMNS 150125Z 23013G18KT 21/M02 A3001 RMK A01 T02131021  RH  021%=      5-min Rain = 0
KMNS 150130Z 22013KT 21/M02 A3001 RMK A01 T02141017  RH  021%=      5-min Rain = 0
KMNS 150135Z 23013KT 21/M01 A3001 RMK A01 T02141014  RH  022%=      5-min Rain = 0
KMNS 150140Z 23012KT 21/M01 A3002 RMK A01 T02131013  RH  022%=      5-min Rain = 0
KMNS 150145Z 23012KT 21/M01 A3002 RMK A01 T02131012  RH  022%=      5-min Rain = 0
KMNS 150150Z 23013KT 21/M01 A3002 RMK A01 T02121011  RH  023%=      5-min Rain = 0
KMNS 150155Z 22012KT 21/M01 A3002 RMK A01 T02121011  RH  023%=      5-min Rain = 0
KMNS 150200Z 22013KT 21/M01 A3002 RMK A01 T02141011  RH  022%=      5-min Rain = 0
KMNS 150205Z 22013G18KT 21/M01 A3002 RMK A01 T02131012  RH  022%=      5-min Rain = 0
KMNS 150210Z 21012KT 21/M01 A3002 RMK A01 T02131013  RH  022%=      5-min Rain = 0
KMNS 150215Z 21011KT 21/M01 A3002 RMK A01 T02101012  RH  023%=      5-min Rain = 0
KMNS 150220Z 21011KT 21/M01 A3002 RMK A01 T02061012  RH  023%=      5-min Rain = 0
KMNS 150225Z 21012KT 21/M01 A3002 RMK A01 T02071012  RH  023%=      5-min Rain = 0
KMNS 150230Z 21012KT 21/M01 A3002 RMK A01 T02071013  RH  023%=      5-min Rain = 0
KMNS 150235Z 21011KT 20/M01 A3002 RMK A01 T02041013  RH  023%=      5-min Rain = 0
KMNS 150240Z 21012KT 20/M01 A3002 RMK A01 T02021013  RH  024%=      5-min Rain = 0
KMNS 150245Z 21012KT 20/M01 A3003 RMK A01 T02011013  RH  024%=      5-min Rain = 0
KMNS 150250Z 21011KT 20/M01 A3003 RMK A01 T01971014  RH  024%=      5-min Rain = 0
KMNS 150255Z 21010KT 19/M01 A3003 RMK A01 T01931013  RH  025%=      5-min Rain = 0
KMNS 150300Z 21009KT 19/M01 A3003 RMK A01 T01881013  RH  026%=      5-min Rain = 0
KMNS 150305Z 21010KT 19/M01 A3003 RMK A01 T01881013  RH  026%=      5-min Rain = 0
KMNS 150310Z 21010KT 19/M01 A3003 RMK A01 T01891014  RH  025%=      5-min Rain = 0
KMNS 150315Z 21011G16KT 19/M02 A3003 RMK A01 T01881015  RH  025%=      5-min Rain = 0
KMNS 150320Z 22013KT 19/M02 A3003 RMK A01 T01931016  RH  025%=      5-min Rain = 0
KMNS 150325Z 23013KT 20/M02 A3003 RMK A01 T01951016  RH  024%=      5-min Rain = 0
KMNS 150330Z 23013KT 20/M02 A3003 RMK A01 T01951015  RH  024%=      5-min Rain = 0
KMNS 150335Z 23013KT 20/M01 A3003 RMK A01 T01951013  RH  025%=      5-min Rain = 0
KMNS 150340Z 23013KT 19/M01 A3003 RMK A01 T01941011  RH  025%=      5-min Rain = 0
KMNS 150345Z 23013KT 19/M01 A3003 RMK A01 T01921010  RH  026%=      5-min Rain = 0
KMNS 150350Z 23012KT 19/M01 A3003 RMK A01 T01911009  RH  026%=      5-min Rain = 0
KMNS 150355Z 24012KT 19/M01 A3003 RMK A01 T01901007  RH  027%=      5-min Rain = 0
KMNS 150400Z 24012KT 19/M01 A3003 RMK A01 T01881005  RH  027%=      5-min Rain = 0
KMNS 150405Z 24012KT 19/M00 A3003 RMK A01 T01871003  RH  028%=      5-min Rain = 0
KMNS 150410Z 24011KT 19/M00 A3003 RMK A01 T01861001  RH  029%=      5-min Rain = 0
KMNS 150415Z 24011KT 19/00 A3003 RMK A01 T018600-0  RH  029%=      5-min Rain = 0
KMNS 150420Z 24010KT 19/00 A3003 RMK A01 T01850001  RH  029%=      5-min Rain = 0
KMNS 150425Z 23009KT 18/00 A3003 RMK A01 T01820001  RH  030%=      5-min Rain = 0
KMNS 150430Z 23008KT 18/00 A3003 RMK A01 T01810002  RH  030%=      5-min Rain = 0
KMNS 150435Z 22008KT 18/00 A3003 RMK A01 T01780001  RH  031%=      5-min Rain = 0
KMNS 150440Z 21008KT 18/00 A3003 RMK A01 T01760001  RH  031%=      5-min Rain = 0
KMNS 150445Z 20008KT 17/M00 A3003 RMK A01 T01711001  RH  031%=      5-min Rain = 0
KMNS 150450Z 20009KT 16/M01 A3003 RMK A01 T01611008  RH  032%=      5-min Rain = 0
KMNS 150455Z 21009KT 16/M00 A3003 RMK A01 T01621004  RH  033%=      5-min Rain = 0
KMNS 150500Z 22009KT 16/M00 A3003 RMK A01 T01631001  RH  033%=      5-min Rain = 0
KMNS 150505Z 22009KT 17/00 A3003 RMK A01 T01660002  RH  033%=      5-min Rain = 0
KMNS 150510Z 22009KT 17/00 A3003 RMK A01 T01710004  RH  033%=      5-min Rain = 0
KMNS 150515Z 21009KT 17/00 A3003 RMK A01 T01720004  RH  033%=      5-min Rain = 0
KMNS 150520Z 19010KT 16/M00 A3004 RMK A01 T01631003  RH  033%=      5-min Rain = 0
KMNS 150525Z 20009KT 16/M01 A3004 RMK A01 T01551006  RH  033%=      5-min Rain = 0
KMNS 150530Z 21010KT 16/M01 A3004 RMK A01 T01571005  RH  033%=      5-min Rain = 0
KMNS 150535Z 21010KT 16/M01 A3003 RMK A01 T01571005  RH  033%=      5-min Rain = 0
KMNS 150540Z 21010KT 16/M01 A3003 RMK A01 T01561005  RH  034%=      5-min Rain = 0
KMNS 150545Z 21009KT 16/M01 A3003 RMK A01 T01561005  RH  034%=      5-min Rain = 0
KMNS 150550Z 21009KT 16/M01 A3003 RMK A01 T01561005  RH  034%=      5-min Rain = 0
KMNS 150555Z 21010KT 15/M01 A3003 RMK A01 T01541005  RH  034%=      5-min Rain = 0

Page generated in 0.0309 seconds.